createdAt,value
2022-12-29T00:00:05.919Z,6.57
2022-12-29T00:00:18.125Z,7.05
2022-12-29T00:00:30.211Z,6.70
2022-12-29T00:00:42.224Z,7.20
2022-12-29T00:00:54.116Z,7.55
2022-12-29T00:01:06.103Z,7.32
2022-12-29T00:01:18.343Z,7.18
2022-12-29T00:01:30.609Z,8.52
2022-12-29T00:01:42.536Z,8.23
2022-12-29T00:01:54.387Z,8.93
2022-12-29T00:02:06.451Z,9.85
2022-12-29T00:02:18.621Z,10.13
2022-12-29T00:02:30.525Z,8.18
2022-12-29T00:02:42.795Z,7.43
2022-12-29T00:02:54.971Z,6.72
2022-12-29T00:03:07.182Z,8.27
2022-12-29T00:03:19.167Z,7.75
2022-12-29T00:03:31.085Z,6.75
2022-12-29T00:03:43.135Z,6.63
2022-12-29T00:03:55.267Z,6.70
2022-12-29T00:04:12.911Z,7.30
2022-12-29T00:04:26.426Z,7.88
2022-12-29T00:04:38.312Z,8.18
2022-12-29T00:04:52.863Z,9.45
2022-12-29T00:05:05.169Z,8.73
2022-12-29T00:05:17.098Z,6.63
2022-12-29T00:05:29.044Z,6.28
2022-12-29T00:05:41.007Z,6.63
2022-12-29T00:05:57.319Z,8.05
2022-12-29T00:06:09.311Z,8.43
2022-12-29T00:06:21.173Z,7.55
2022-12-29T00:06:33.133Z,9.65
2022-12-29T00:06:45.039Z,10.50
2022-12-29T00:06:56.921Z,9.68
2022-12-29T00:07:08.820Z,9.02
2022-12-29T00:07:20.627Z,6.78
2022-12-29T00:07:32.476Z,7.35
2022-12-29T00:07:44.397Z,9.23
2022-12-29T00:07:56.221Z,8.40
2022-12-29T00:08:08.043Z,7.78
2022-12-29T00:08:19.868Z,7.78
2022-12-29T00:08:41.178Z,8.52
2022-12-29T00:08:53.368Z,7.88
2022-12-29T00:09:05.348Z,7.90
2022-12-29T00:09:17.576Z,8.50
2022-12-29T00:09:29.546Z,7.18
2022-12-29T00:09:41.400Z,6.57
2022-12-29T00:09:53.392Z,7.28
2022-12-29T00:10:06.107Z,9.55
2022-12-29T00:10:18.041Z,9.10
2022-12-29T00:10:29.806Z,7.85
2022-12-29T00:10:41.572Z,6.78
2022-12-29T00:10:53.404Z,7.22
2022-12-29T00:11:05.461Z,7.57
2022-12-29T00:11:22.793Z,7.32
2022-12-29T00:11:34.762Z,7.60
2022-12-29T00:11:46.611Z,7.10
2022-12-29T00:11:59.125Z,7.62
2022-12-29T00:12:10.936Z,6.13
2022-12-29T00:12:22.958Z,6.28
2022-12-29T00:12:53.444Z,6.32
2022-12-29T00:13:23.556Z,12.30
2022-12-29T00:13:54.342Z,9.68
2022-12-29T00:14:26.366Z,6.50
2022-12-29T00:14:56.884Z,11.48
2022-12-29T00:15:27.735Z,7.22
2022-12-29T00:15:39.689Z,7.22
2022-12-29T00:15:51.512Z,7.55
2022-12-29T00:16:03.431Z,8.43
2022-12-29T00:16:15.315Z,8.07
2022-12-29T00:16:28.010Z,8.80
2022-12-29T00:16:45.134Z,9.00
2022-12-29T00:16:57.056Z,8.85
2022-12-29T00:17:08.977Z,8.93
2022-12-29T00:17:20.887Z,9.02
2022-12-29T00:17:32.677Z,8.18
2022-12-29T00:17:44.591Z,8.23
2022-12-29T00:17:56.519Z,7.28
2022-12-29T00:18:08.540Z,6.68
2022-12-29T00:18:20.372Z,6.68
2022-12-29T00:18:32.163Z,6.55
2022-12-29T00:18:43.948Z,7.13
2022-12-29T00:18:55.886Z,7.55
2022-12-29T00:19:27.754Z,7.57
2022-12-29T00:19:57.969Z,10.40
2022-12-29T00:20:28.955Z,10.05
2022-12-29T00:20:59.328Z,9.55
2022-12-29T00:21:37.807Z,7.78
2022-12-29T00:22:08.115Z,9.75
2022-12-29T00:22:39.111Z,7.53
2022-12-29T00:23:09.716Z,6.24
2022-12-29T00:23:40.831Z,8.45
2022-12-29T00:24:11.405Z,9.10
2022-12-29T00:24:23.171Z,9.00
2022-12-29T00:24:53.789Z,9.65
2022-12-29T00:25:06.380Z,9.00
2022-12-29T00:25:36.666Z,7.10
2022-12-29T00:26:07.405Z,6.88
2022-12-29T00:26:48.069Z,8.52
2022-12-29T00:27:23.874Z,7.55
2022-12-29T00:27:54.818Z,8.15
2022-12-29T00:28:30.176Z,8.73
2022-12-29T00:29:00.794Z,7.75
2022-12-29T00:29:31.411Z,7.50
2022-12-29T00:30:01.736Z,9.23
2022-12-29T00:30:34.721Z,7.28
2022-12-29T00:31:05.080Z,7.82
2022-12-29T00:31:35.472Z,7.47
2022-12-29T00:32:05.817Z,6.80
2022-12-29T00:32:36.370Z,9.32
2022-12-29T00:33:06.524Z,6.63
2022-12-29T00:33:39.641Z,9.15
2022-12-29T00:34:09.884Z,7.38
2022-12-29T00:34:39.853Z,7.03
2022-12-29T00:35:09.463Z,9.98
2022-12-29T00:35:36.153Z,10.07
2022-12-29T00:35:54.671Z,8.32
2022-12-29T00:36:13.000Z,7.18
2022-12-29T00:36:28.481Z,8.80
2022-12-29T00:36:41.342Z,7.57
2022-12-29T00:36:53.520Z,7.43
2022-12-29T00:37:05.440Z,7.38
2022-12-29T00:37:17.285Z,8.70
2022-12-29T00:37:48.280Z,8.85
2022-12-29T00:38:23.692Z,10.27
2022-12-29T00:38:56.491Z,6.80
2022-12-29T00:39:35.350Z,6.28
2022-12-29T00:40:19.375Z,8.40
2022-12-29T00:40:49.649Z,7.30
2022-12-29T00:41:20.029Z,6.80
2022-12-29T00:41:50.346Z,8.68
2022-12-29T00:42:27.157Z,6.35
2022-12-29T00:42:57.732Z,9.57
2022-12-29T00:43:28.394Z,9.10
2022-12-29T00:43:58.612Z,7.40
2022-12-29T00:44:13.116Z,11.00
2022-12-29T00:44:25.852Z,8.06
2022-12-29T00:44:37.647Z,7.65
2022-12-29T00:44:49.472Z,8.68
2022-12-29T00:45:01.313Z,9.43
2022-12-29T00:45:13.116Z,10.00
2022-12-29T00:45:25.029Z,9.35
2022-12-29T00:45:36.925Z,8.90
2022-12-29T00:45:49.135Z,7.90
2022-12-29T00:46:00.981Z,8.93
2022-12-29T00:46:19.273Z,8.85
2022-12-29T00:46:35.074Z,8.10
2022-12-29T00:46:47.081Z,8.45
2022-12-29T00:47:03.222Z,9.23
2022-12-29T00:47:15.229Z,11.13
2022-12-29T00:47:27.249Z,11.10
2022-12-29T00:47:39.051Z,10.70
2022-12-29T00:47:50.857Z,10.93
2022-12-29T00:48:02.694Z,8.63
2022-12-29T00:48:14.500Z,6.65
2022-12-29T00:48:44.622Z,6.50
2022-12-29T00:49:14.899Z,7.22
2022-12-29T00:49:32.872Z,7.80
2022-12-29T00:49:44.707Z,8.68
2022-12-29T00:49:56.505Z,8.88
2022-12-29T00:50:08.839Z,8.18
2022-12-29T00:50:20.737Z,7.05
2022-12-29T00:50:32.491Z,7.10
2022-12-29T00:50:44.238Z,8.60
2022-12-29T00:50:57.490Z,9.27
2022-12-29T00:51:09.380Z,8.23
2022-12-29T00:51:21.370Z,10.50
2022-12-29T00:51:33.184Z,12.23
2022-12-29T00:51:45.283Z,11.90
2022-12-29T00:51:59.620Z,7.50
2022-12-29T00:52:12.970Z,8.25
2022-12-29T00:52:24.875Z,7.85
2022-12-29T00:52:36.812Z,7.25
2022-12-29T00:52:48.722Z,6.75
2022-12-29T00:53:00.533Z,8.13
2022-12-29T00:53:12.346Z,7.57
2022-12-29T00:53:24.175Z,14.02
2022-12-29T00:53:36.130Z,13.65
2022-12-29T00:53:47.888Z,11.13
2022-12-29T00:53:59.650Z,9.25
2022-12-29T00:54:11.625Z,8.95
2022-12-29T00:54:23.518Z,8.00
2022-12-29T00:54:37.632Z,9.93
2022-12-29T00:54:49.422Z,9.95
2022-12-29T00:55:01.246Z,7.45
2022-12-29T00:55:13.071Z,7.50
2022-12-29T00:55:25.491Z,9.07
2022-12-29T00:55:39.956Z,9.45
2022-12-29T00:55:51.888Z,8.25
2022-12-29T00:56:04.000Z,7.65
2022-12-29T00:56:15.946Z,9.10
2022-12-29T00:56:27.767Z,9.05
2022-12-29T00:56:39.732Z,8.10
2022-12-29T00:56:52.252Z,8.05
2022-12-29T00:57:04.913Z,9.90
2022-12-29T00:57:17.020Z,9.93
2022-12-29T00:57:29.935Z,9.20
2022-12-29T00:57:41.823Z,9.25
2022-12-29T00:57:53.643Z,9.40
2022-12-29T00:58:05.509Z,9.23
2022-12-29T00:58:17.313Z,8.63
2022-12-29T00:58:30.755Z,8.38
2022-12-29T00:58:42.546Z,8.43
2022-12-29T00:58:54.385Z,7.55
2022-12-29T00:59:08.524Z,7.30
2022-12-29T00:59:20.717Z,7.82
2022-12-29T00:59:32.548Z,7.55
2022-12-29T00:59:44.378Z,7.15
2022-12-29T00:59:56.215Z,6.75
2022-12-29T01:00:09.016Z,8.90
2022-12-29T01:00:20.768Z,9.25
2022-12-29T01:00:32.571Z,8.23
2022-12-29T01:00:44.544Z,6.85
2022-12-29T01:01:07.556Z,8.05
2022-12-29T01:01:19.703Z,7.40
2022-12-29T01:01:31.995Z,6.50
2022-12-29T01:01:44.383Z,7.95
2022-12-29T01:01:56.578Z,8.25
2022-12-29T01:02:08.846Z,8.45
2022-12-29T01:02:20.857Z,7.45
2022-12-29T01:02:32.807Z,8.38
2022-12-29T01:02:45.677Z,10.20
2022-12-29T01:02:57.766Z,12.68
2022-12-29T01:03:09.707Z,12.25
2022-12-29T01:03:21.873Z,11.27
2022-12-29T01:03:34.729Z,9.00
2022-12-29T01:03:46.505Z,8.57
2022-12-29T01:04:02.222Z,8.48
2022-12-29T01:04:15.999Z,9.43
2022-12-29T01:04:28.083Z,8.18
2022-12-29T01:04:40.101Z,8.50
2022-12-29T01:04:51.908Z,9.20
2022-12-29T01:05:03.919Z,9.18
2022-12-29T01:05:15.958Z,8.82
2022-12-29T01:05:27.783Z,8.75
2022-12-29T01:05:39.741Z,11.43
2022-12-29T01:05:51.663Z,13.32
2022-12-29T01:06:04.851Z,12.73
2022-12-29T01:06:16.772Z,9.40
2022-12-29T01:06:30.355Z,7.30
2022-12-29T01:06:42.304Z,8.23
2022-12-29T01:06:54.245Z,7.55
2022-12-29T01:07:06.163Z,7.82
2022-12-29T01:07:18.414Z,7.72
2022-12-29T01:07:30.283Z,8.07
2022-12-29T01:07:42.216Z,8.05
2022-12-29T01:07:54.123Z,7.78
2022-12-29T01:08:06.140Z,7.85
2022-12-29T01:08:19.057Z,7.45
2022-12-29T01:08:30.974Z,6.57
2022-12-29T01:08:42.798Z,7.03
2022-12-29T01:09:13.031Z,7.22
2022-12-29T01:09:43.647Z,9.40
2022-12-29T01:10:10.687Z,9.65
2022-12-29T01:10:22.588Z,7.15
2022-12-29T01:10:35.006Z,8.23
2022-12-29T01:10:46.899Z,8.13
2022-12-29T01:11:03.250Z,9.18
2022-12-29T01:11:15.166Z,10.20
2022-12-29T01:11:27.061Z,8.88
2022-12-29T01:11:39.718Z,8.02
2022-12-29T01:11:51.569Z,8.88
2022-12-29T01:12:04.659Z,9.02
2022-12-29T01:12:16.474Z,8.77
2022-12-29T01:12:42.128Z,10.48
2022-12-29T01:12:53.931Z,9.13
2022-12-29T01:13:05.926Z,7.47
2022-12-29T01:13:17.836Z,8.00
2022-12-29T01:13:29.824Z,8.77
2022-12-29T01:13:43.432Z,9.95
2022-12-29T01:13:55.437Z,8.65
2022-12-29T01:14:07.571Z,7.38
2022-12-29T01:14:19.931Z,7.88
2022-12-29T01:14:31.907Z,9.32
2022-12-29T01:14:43.765Z,10.20
2022-12-29T01:14:55.521Z,9.60
2022-12-29T01:15:09.418Z,7.35
2022-12-29T01:15:21.340Z,7.90
2022-12-29T01:15:33.087Z,8.93
2022-12-29T01:15:54.029Z,7.45
2022-12-29T01:16:06.785Z,8.57
2022-12-29T01:16:19.098Z,8.73
2022-12-29T01:16:31.058Z,8.93
2022-12-29T01:16:43.132Z,8.63
2022-12-29T01:16:55.806Z,7.85
2022-12-29T01:17:07.625Z,7.68
2022-12-29T01:17:19.568Z,7.38
2022-12-29T01:17:31.487Z,9.00
2022-12-29T01:17:43.502Z,9.68
2022-12-29T01:17:55.445Z,9.23
2022-12-29T01:18:07.325Z,9.27
2022-12-29T01:18:19.184Z,9.05
2022-12-29T01:18:31.134Z,7.93
2022-12-29T01:18:42.943Z,9.05
2022-12-29T01:18:54.844Z,10.40
2022-12-29T01:19:07.274Z,10.55
2022-12-29T01:19:19.396Z,8.68
2022-12-29T01:19:31.267Z,8.23
2022-12-29T01:19:43.036Z,7.47
2022-12-29T01:19:54.857Z,6.70
2022-12-29T01:20:07.520Z,7.00
2022-12-29T01:20:19.480Z,8.45
2022-12-29T01:20:31.300Z,9.02
2022-12-29T01:20:43.084Z,8.65
2022-12-29T01:21:05.897Z,8.63
2022-12-29T01:21:19.003Z,8.70
2022-12-29T01:21:31.041Z,8.75
2022-12-29T01:21:43.004Z,8.32
2022-12-29T01:21:54.849Z,7.88
2022-12-29T01:22:06.667Z,7.00
2022-12-29T01:22:19.112Z,7.68
2022-12-29T01:22:30.935Z,8.82
2022-12-29T01:22:43.570Z,12.13
2022-12-29T01:22:55.667Z,11.38
2022-12-29T01:23:07.573Z,7.55
2022-12-29T01:23:19.441Z,6.80
2022-12-29T01:23:31.475Z,7.07
2022-12-29T01:23:43.269Z,8.18
2022-12-29T01:23:55.062Z,8.10
2022-12-29T01:24:07.412Z,7.05
2022-12-29T01:24:20.003Z,8.45
2022-12-29T01:24:31.952Z,10.30
2022-12-29T01:24:43.735Z,10.95
2022-12-29T01:24:55.689Z,8.80
2022-12-29T01:25:08.206Z,8.82
2022-12-29T01:25:20.136Z,8.23
2022-12-29T01:25:32.077Z,16.42
2022-12-29T01:25:43.952Z,18.10
2022-12-29T01:25:55.975Z,17.83
2022-12-29T01:26:12.138Z,11.48
2022-12-29T01:26:23.945Z,10.13
2022-12-29T01:26:35.891Z,8.40
2022-12-29T01:26:48.085Z,8.32
2022-12-29T01:27:00.035Z,8.70
2022-12-29T01:27:11.952Z,8.55
2022-12-29T01:27:23.743Z,7.82
2022-12-29T01:27:35.929Z,7.10
2022-12-29T01:27:47.880Z,7.68
2022-12-29T01:28:00.049Z,7.55
2022-12-29T01:28:11.947Z,11.75
2022-12-29T01:28:26.096Z,13.10
2022-12-29T01:28:41.118Z,10.85
2022-12-29T01:28:53.122Z,8.57
2022-12-29T01:29:04.943Z,8.70
2022-12-29T01:29:16.947Z,8.75
2022-12-29T01:29:28.907Z,9.35
2022-12-29T01:29:40.711Z,8.57
2022-12-29T01:29:52.679Z,9.43
2022-12-29T01:30:05.467Z,10.60
2022-12-29T01:30:17.322Z,10.77
2022-12-29T01:30:30.186Z,9.90
2022-12-29T01:30:41.984Z,11.90
2022-12-29T01:30:53.939Z,12.75
2022-12-29T01:31:05.919Z,11.05
2022-12-29T01:31:17.968Z,9.45
2022-12-29T01:31:30.249Z,9.30
2022-12-29T01:31:42.118Z,8.75
2022-12-29T01:31:54.048Z,11.02
2022-12-29T01:32:06.148Z,11.63
2022-12-29T01:32:18.130Z,12.90
2022-12-29T01:32:29.944Z,10.68
2022-12-29T01:32:41.812Z,13.05
2022-12-29T01:32:53.679Z,13.10
2022-12-29T01:33:05.528Z,13.13
2022-12-29T01:33:17.439Z,7.80
2022-12-29T01:33:30.067Z,8.85
2022-12-29T01:33:42.506Z,8.60
2022-12-29T01:33:54.427Z,8.88
2022-12-29T01:34:06.541Z,8.48
2022-12-29T01:34:18.933Z,9.20
2022-12-29T01:34:30.749Z,10.18
2022-12-29T01:34:42.507Z,10.98
2022-12-29T01:34:54.271Z,10.68
2022-12-29T01:35:06.614Z,10.85
2022-12-29T01:35:18.417Z,10.13
2022-12-29T01:35:30.368Z,7.65
2022-12-29T01:35:42.280Z,7.88
2022-12-29T01:35:54.132Z,8.52
2022-12-29T01:36:08.249Z,8.15
2022-12-29T01:36:20.401Z,8.88
2022-12-29T01:36:32.361Z,8.30
2022-12-29T01:36:44.202Z,6.95
2022-12-29T01:36:56.057Z,6.72
2022-12-29T01:37:07.899Z,7.93
2022-12-29T01:37:19.845Z,8.30
2022-12-29T01:37:31.979Z,9.27
2022-12-29T01:37:43.737Z,9.27
2022-12-29T01:37:55.663Z,7.97
2022-12-29T01:38:08.863Z,7.90
2022-12-29T01:38:20.686Z,9.02
2022-12-29T01:38:33.177Z,10.15
2022-12-29T01:38:45.729Z,10.38
2022-12-29T01:38:57.667Z,9.50
2022-12-29T01:39:09.542Z,10.15
2022-12-29T01:39:21.500Z,9.23
2022-12-29T01:39:33.580Z,10.60
2022-12-29T01:39:45.347Z,9.95
2022-12-29T01:39:57.272Z,9.57
2022-12-29T01:40:10.049Z,8.43
2022-12-29T01:40:21.864Z,8.80
2022-12-29T01:40:33.819Z,8.52
2022-12-29T01:40:47.296Z,8.75
2022-12-29T01:40:59.162Z,9.05
2022-12-29T01:41:12.393Z,10.07
2022-12-29T01:41:24.489Z,11.52
2022-12-29T01:41:36.369Z,11.48
2022-12-29T01:41:48.334Z,9.18
2022-12-29T01:42:00.492Z,8.38
2022-12-29T01:42:19.449Z,8.82
2022-12-29T01:42:31.234Z,11.10
2022-12-29T01:42:43.051Z,10.82
2022-12-29T01:42:54.975Z,8.77
2022-12-29T01:43:11.566Z,8.43
2022-12-29T01:44:00.098Z,9.85
2022-12-29T01:45:14.845Z,9.95
2022-12-29T01:45:26.814Z,7.70
2022-12-29T01:45:38.956Z,7.45
2022-12-29T01:45:52.879Z,9.23
2022-12-29T01:46:05.015Z,9.68
2022-12-29T01:46:36.301Z,8.70
2022-12-29T01:46:48.112Z,10.77
2022-12-29T01:47:00.015Z,10.50
2022-12-29T01:47:12.040Z,10.50
2022-12-29T01:47:47.341Z,9.18
2022-12-29T01:48:01.787Z,9.20
2022-12-29T01:48:13.511Z,7.85
2022-12-29T01:48:25.908Z,8.68
2022-12-29T01:48:37.797Z,8.90
2022-12-29T01:48:49.776Z,9.02
2022-12-29T01:49:10.621Z,9.25
2022-12-29T01:49:25.856Z,11.02
2022-12-29T01:49:37.705Z,8.70
2022-12-29T01:49:49.689Z,8.50
2022-12-29T01:50:13.048Z,9.57
2022-12-29T01:50:39.035Z,8.73
2022-12-29T01:50:52.644Z,9.23
2022-12-29T01:51:04.564Z,9.05
2022-12-29T01:51:16.977Z,8.07
2022-12-29T01:51:30.798Z,8.40
2022-12-29T01:51:52.941Z,8.73
2022-12-29T01:52:07.602Z,9.55
2022-12-29T01:52:19.377Z,10.75
2022-12-29T01:52:33.106Z,11.35
2022-12-29T01:52:52.317Z,13.38
2022-12-29T01:53:19.312Z,9.98
2022-12-29T01:53:32.424Z,9.27
2022-12-29T01:53:44.274Z,10.07
2022-12-29T01:53:56.118Z,11.40
2022-12-29T01:54:15.081Z,12.90
2022-12-29T01:54:33.012Z,10.65
2022-12-29T01:54:48.511Z,9.65
2022-12-29T01:55:00.340Z,12.50
2022-12-29T01:55:12.156Z,13.68
2022-12-29T01:55:23.914Z,12.02
2022-12-29T01:55:43.024Z,9.45
2022-12-29T01:55:58.035Z,10.27
2022-12-29T01:56:11.091Z,10.93
2022-12-29T01:56:22.981Z,11.48
2022-12-29T01:56:34.792Z,10.70
2022-12-29T01:56:47.087Z,9.85
2022-12-29T01:57:02.595Z,10.07
2022-12-29T01:57:18.408Z,8.70
2022-12-29T01:57:37.580Z,10.43
2022-12-29T01:57:51.284Z,13.23
2022-12-29T01:58:05.463Z,12.00
2022-12-29T01:58:17.302Z,10.55
2022-12-29T01:58:33.632Z,10.50
2022-12-29T01:58:49.120Z,9.75
2022-12-29T01:59:07.513Z,9.23
2022-12-29T01:59:23.790Z,10.02
2022-12-29T01:59:39.766Z,10.63
2022-12-29T01:59:56.365Z,11.38
2022-12-29T02:00:12.929Z,9.68
2022-12-29T02:00:25.922Z,8.95
2022-12-29T02:00:38.658Z,8.88
2022-12-29T02:00:50.479Z,9.20
2022-12-29T02:01:03.200Z,9.35
2022-12-29T02:01:15.889Z,8.90
2022-12-29T02:01:27.759Z,9.40
2022-12-29T02:01:39.904Z,8.70
2022-12-29T02:01:52.162Z,9.07
2022-12-29T02:02:04.528Z,9.85
2022-12-29T02:02:16.597Z,11.27
2022-12-29T02:02:33.150Z,13.32
2022-12-29T02:02:54.905Z,12.43
2022-12-29T02:03:07.006Z,9.63
2022-12-29T02:03:19.478Z,10.30
2022-12-29T02:03:33.492Z,10.85
2022-12-29T02:03:45.470Z,9.05
2022-12-29T02:03:57.288Z,10.55
2022-12-29T02:04:10.824Z,10.55
2022-12-29T02:04:23.876Z,11.88
2022-12-29T02:04:35.756Z,11.07
2022-12-29T02:04:49.064Z,9.80
2022-12-29T02:05:06.508Z,10.70
2022-12-29T02:05:55.613Z,9.57
2022-12-29T02:06:22.217Z,9.23
2022-12-29T02:06:38.550Z,10.40
2022-12-29T02:07:00.771Z,8.95
2022-12-29T02:07:24.079Z,11.10
2022-12-29T02:07:35.976Z,11.93
2022-12-29T02:07:47.901Z,13.38
2022-12-29T02:07:59.779Z,13.40
2022-12-29T02:08:12.209Z,11.20
2022-12-29T02:08:24.874Z,11.05
2022-12-29T02:08:36.652Z,9.93
2022-12-29T02:08:48.755Z,9.25
2022-12-29T02:09:00.558Z,8.23
2022-12-29T02:09:12.410Z,8.23
2022-12-29T02:09:24.602Z,9.13
2022-12-29T02:09:36.669Z,10.55
2022-12-29T02:09:49.939Z,10.77
2022-12-29T02:10:01.799Z,10.02
2022-12-29T02:10:13.821Z,9.45
2022-12-29T02:10:27.161Z,9.55
2022-12-29T02:10:39.119Z,12.18
2022-12-29T02:10:51.032Z,12.05
2022-12-29T02:11:03.025Z,11.93
2022-12-29T02:11:15.054Z,11.65
2022-12-29T02:11:28.047Z,10.43
2022-12-29T02:11:40.010Z,8.73
2022-12-29T02:11:51.948Z,8.55
2022-12-29T02:12:04.058Z,11.02
2022-12-29T02:12:16.299Z,12.43
2022-12-29T02:12:29.794Z,12.55
2022-12-29T02:12:41.602Z,10.13
2022-12-29T02:12:54.423Z,9.70
2022-12-29T02:13:06.317Z,7.55
2022-12-29T02:13:19.163Z,7.18
2022-12-29T02:13:31.126Z,7.60
2022-12-29T02:13:43.240Z,9.05
2022-12-29T02:13:55.100Z,10.65
2022-12-29T02:14:11.397Z,10.52
2022-12-29T02:14:23.226Z,9.40
2022-12-29T02:14:35.155Z,9.65
2022-12-29T02:14:47.499Z,9.80
2022-12-29T02:15:01.137Z,8.93
2022-12-29T02:15:12.972Z,10.00
2022-12-29T02:15:48.712Z,10.30
2022-12-29T02:16:14.664Z,11.63
2022-12-29T02:16:44.314Z,10.98
2022-12-29T02:17:35.745Z,12.68
2022-12-29T02:18:31.359Z,9.88
2022-12-29T02:18:59.236Z,10.98
2022-12-29T02:19:48.169Z,8.38
2022-12-29T02:20:14.432Z,10.45
2022-12-29T02:21:09.636Z,9.65
2022-12-29T02:22:17.943Z,12.50
2022-12-29T02:22:51.881Z,11.55
2022-12-29T02:23:15.337Z,11.32
2022-12-29T02:23:36.994Z,12.42
2022-12-29T02:24:07.257Z,12.82
2022-12-29T02:24:55.921Z,12.10
2022-12-29T02:25:19.642Z,8.68
2022-12-29T02:26:12.214Z,11.45
2022-12-29T02:26:51.199Z,8.70
2022-12-29T02:27:37.203Z,10.60
2022-12-29T02:28:01.661Z,11.88
2022-12-29T02:28:31.716Z,14.30
2022-12-29T02:29:08.398Z,11.98
2022-12-29T02:29:31.927Z,10.00
2022-12-29T02:30:05.864Z,9.88
2022-12-29T02:30:51.787Z,10.30
2022-12-29T02:31:39.751Z,12.30
2022-12-29T02:32:23.228Z,10.57
2022-12-29T02:33:10.849Z,12.23
2022-12-29T02:33:50.117Z,10.98
2022-12-29T02:34:23.508Z,9.43
2022-12-29T02:34:53.549Z,12.73
2022-12-29T02:35:25.534Z,11.32
2022-12-29T02:35:59.488Z,11.65
2022-12-29T02:36:44.921Z,7.70
2022-12-29T02:38:41.368Z,10.70
2022-12-29T02:39:12.401Z,10.54
2022-12-29T02:39:45.581Z,10.55
2022-12-29T02:40:25.970Z,10.75
2022-12-29T02:40:54.500Z,9.15
2022-12-29T02:41:35.881Z,9.13
2022-12-29T02:42:16.804Z,10.27
2022-12-29T02:42:40.142Z,9.00
2022-12-29T02:43:09.988Z,8.85
2022-12-29T02:43:34.816Z,8.45
2022-12-29T02:44:30.874Z,9.82
2022-12-29T02:44:57.516Z,8.82
2022-12-29T02:45:22.844Z,9.65
2022-12-29T02:45:56.739Z,10.45
2022-12-29T02:46:31.805Z,10.48
2022-12-29T02:46:56.533Z,8.40
2022-12-29T02:47:20.797Z,9.82
2022-12-29T02:47:44.953Z,8.45
2022-12-29T02:48:25.274Z,8.52
2022-12-29T02:59:41.899Z,6.30
2022-12-29T02:59:58.137Z,7.43
2022-12-29T03:00:12.625Z,8.55
2022-12-29T03:00:24.431Z,9.75
2022-12-29T03:00:47.189Z,10.02
2022-12-29T03:01:41.162Z,9.50
2022-12-29T03:02:19.994Z,8.20
2022-12-29T03:02:53.190Z,9.60
2022-12-29T03:04:15.816Z,13.80
2022-12-29T03:04:45.665Z,8.45
2022-12-29T03:05:02.935Z,8.77
2022-12-29T03:05:26.704Z,9.70
2022-12-29T03:06:19.310Z,8.02
2022-12-29T03:06:53.225Z,9.27
2022-12-29T03:07:29.865Z,9.38
2022-12-29T03:07:56.430Z,9.90
2022-12-29T03:08:30.162Z,7.90
2022-12-29T03:08:53.491Z,11.63
2022-12-29T03:09:18.992Z,9.95
2022-12-29T03:09:44.792Z,10.48
2022-12-29T03:10:35.500Z,8.95
2022-12-29T03:11:29.421Z,7.22
2022-12-29T03:12:08.945Z,12.65
2022-12-29T03:12:55.221Z,8.23
2022-12-29T03:13:40.224Z,9.13
2022-12-29T03:14:12.340Z,9.88
2022-12-29T03:14:52.778Z,8.15
2022-12-29T03:15:30.942Z,8.65
2022-12-29T03:16:05.500Z,10.07
2022-12-29T03:16:45.138Z,9.55
2022-12-29T03:17:01.884Z,10.23
2022-12-29T03:17:43.432Z,13.80
2022-12-29T03:18:10.563Z,11.13
2022-12-29T03:18:26.395Z,7.80
2022-12-29T03:19:02.470Z,7.38
2022-12-29T03:19:24.658Z,10.40
2022-12-29T03:19:42.890Z,9.80
2022-12-29T03:19:57.889Z,8.75
2022-12-29T03:20:11.790Z,7.90
2022-12-29T03:20:28.101Z,10.15
2022-12-29T03:20:45.382Z,11.20
2022-12-29T03:21:06.120Z,8.18
2022-12-29T03:21:55.852Z,8.85
2022-12-29T03:22:28.168Z,7.50
2022-12-29T03:22:42.671Z,8.82
2022-12-29T03:22:57.418Z,7.93
2022-12-29T03:23:09.232Z,7.82
2022-12-29T03:23:21.303Z,8.77
2022-12-29T03:23:33.416Z,8.43
2022-12-29T03:23:48.705Z,8.60
2022-12-29T03:24:00.541Z,8.13
2022-12-29T03:24:12.517Z,8.48
2022-12-29T03:24:30.672Z,8.32
2022-12-29T03:24:45.859Z,7.22
2022-12-29T03:25:22.111Z,7.25
2022-12-29T03:25:37.872Z,7.20
2022-12-29T03:25:52.834Z,6.47
2022-12-29T03:26:07.702Z,7.63
2022-12-29T03:26:19.584Z,8.52
2022-12-29T03:26:31.362Z,7.57
2022-12-29T03:26:43.117Z,8.60
2022-12-29T03:27:00.230Z,8.82
2022-12-29T03:27:14.748Z,11.60
2022-12-29T03:27:33.814Z,14.13
2022-12-29T03:27:52.603Z,12.18
2022-12-29T03:28:11.050Z,9.07
2022-12-29T03:28:30.437Z,9.77
2022-12-29T03:28:47.505Z,7.50
2022-12-29T03:28:59.325Z,6.75
2022-12-29T03:29:11.627Z,8.25
2022-12-29T03:29:23.370Z,7.90
2022-12-29T03:29:40.130Z,8.85
2022-12-29T03:29:55.384Z,9.02
2022-12-29T03:30:08.296Z,7.93
2022-12-29T03:30:20.174Z,8.05
2022-12-29T03:30:32.062Z,7.70
2022-12-29T03:30:44.021Z,7.55
2022-12-29T03:30:56.891Z,7.75
2022-12-29T03:31:09.459Z,7.65
2022-12-29T03:31:21.779Z,8.55
2022-12-29T03:31:33.498Z,7.28
2022-12-29T03:31:45.421Z,8.90
2022-12-29T03:31:57.583Z,14.50
2022-12-29T03:32:09.840Z,14.00
2022-12-29T03:32:27.346Z,10.80
2022-12-29T03:32:48.038Z,9.63
2022-12-29T03:33:03.631Z,8.90
2022-12-29T03:33:19.729Z,9.10
2022-12-29T03:33:31.668Z,10.00
2022-12-29T03:33:43.607Z,10.07
2022-12-29T03:33:56.226Z,8.43
2022-12-29T03:34:08.109Z,6.32
2022-12-29T03:34:20.541Z,7.85
2022-12-29T03:34:32.366Z,6.84
2022-12-29T03:34:44.205Z,6.00
2022-12-29T03:34:56.178Z,6.10
2022-12-29T03:35:09.175Z,7.65
2022-12-29T03:35:26.125Z,7.28
2022-12-29T03:35:39.822Z,7.00
2022-12-29T03:35:52.920Z,8.63
2022-12-29T03:36:07.888Z,9.68
2022-12-29T03:36:33.973Z,8.18
2022-12-29T03:37:06.793Z,8.30
2022-12-29T03:37:23.353Z,8.23
2022-12-29T03:37:41.881Z,6.93
2022-12-29T03:38:18.521Z,5.88
2022-12-29T03:38:37.344Z,9.02
2022-12-29T03:39:03.130Z,6.60
2022-12-29T03:39:15.015Z,7.47
2022-12-29T03:39:26.962Z,7.13
2022-12-29T03:39:38.894Z,8.48
2022-12-29T03:39:50.703Z,8.88
2022-12-29T03:40:02.476Z,10.32
2022-12-29T03:40:14.416Z,8.20
2022-12-29T03:40:26.235Z,6.97
2022-12-29T03:40:39.434Z,6.80
2022-12-29T03:40:55.007Z,7.13
2022-12-29T03:41:10.088Z,7.60
2022-12-29T03:41:25.877Z,8.32
2022-12-29T03:41:37.744Z,8.57
2022-12-29T03:41:49.561Z,8.57
2022-12-29T03:42:04.278Z,8.38
2022-12-29T03:42:21.344Z,9.45
2022-12-29T03:42:35.135Z,8.57
2022-12-29T03:42:47.196Z,8.57
2022-12-29T03:42:59.094Z,8.52
2022-12-29T03:43:11.129Z,10.45
2022-12-29T03:43:23.012Z,9.50
2022-12-29T03:43:34.981Z,10.20
2022-12-29T03:43:47.454Z,7.88
2022-12-29T03:43:59.412Z,7.47
2022-12-29T03:44:12.386Z,7.00
2022-12-29T03:44:37.341Z,8.07
2022-12-29T03:44:49.211Z,8.63
2022-12-29T03:45:01.095Z,6.80
2022-12-29T03:45:12.945Z,8.27
2022-12-29T03:45:24.913Z,8.25
2022-12-29T03:45:36.685Z,8.50
2022-12-29T03:45:48.693Z,8.68
2022-12-29T03:46:00.707Z,7.88
2022-12-29T03:46:12.548Z,7.40
2022-12-29T03:46:24.535Z,8.15
2022-12-29T03:46:36.588Z,8.95
2022-12-29T03:46:48.612Z,8.30
2022-12-29T03:47:00.423Z,7.15
2022-12-29T03:47:13.465Z,7.13
2022-12-29T03:47:25.417Z,6.97
2022-12-29T03:47:37.231Z,7.25
2022-12-29T03:47:48.990Z,7.25
2022-12-29T03:48:00.788Z,8.00
2022-12-29T03:48:12.712Z,8.30
2022-12-29T03:48:24.526Z,7.60
2022-12-29T03:48:36.295Z,7.63
2022-12-29T03:48:48.153Z,8.77
2022-12-29T03:49:00.038Z,9.10
2022-12-29T03:49:11.926Z,11.93
2022-12-29T03:49:23.793Z,15.00
2022-12-29T03:49:35.619Z,11.73
2022-12-29T03:49:47.483Z,6.40
2022-12-29T03:49:59.407Z,6.45
2022-12-29T03:50:13.833Z,7.45
2022-12-29T03:50:26.353Z,7.50
2022-12-29T03:50:38.303Z,7.40
2022-12-29T03:50:50.157Z,8.77
2022-12-29T03:51:01.961Z,7.68
2022-12-29T03:51:13.814Z,8.10
2022-12-29T03:51:26.365Z,7.07
2022-12-29T03:51:38.215Z,9.00
2022-12-29T03:51:51.869Z,10.35
2022-12-29T03:52:04.366Z,9.48
2022-12-29T03:52:16.350Z,8.85
2022-12-29T03:52:28.795Z,7.32
2022-12-29T03:52:40.779Z,7.05
2022-12-29T03:52:52.603Z,7.28
2022-12-29T03:53:04.419Z,8.32
2022-12-29T03:53:16.315Z,9.30
2022-12-29T03:53:28.375Z,11.13
2022-12-29T03:53:40.217Z,10.35
2022-12-29T03:53:52.033Z,9.70
2022-12-29T03:54:04.032Z,8.70
2022-12-29T03:54:15.877Z,7.22
2022-12-29T03:54:27.714Z,7.57
2022-12-29T03:54:39.521Z,7.65
2022-12-29T03:54:51.303Z,7.50
2022-12-29T03:55:03.228Z,8.57
2022-12-29T03:55:15.352Z,9.77
2022-12-29T03:55:27.253Z,11.00
2022-12-29T03:55:39.219Z,10.18
2022-12-29T03:55:51.301Z,8.40
2022-12-29T03:56:03.387Z,6.28
2022-12-29T03:56:15.146Z,6.28
2022-12-29T03:56:27.411Z,7.20
2022-12-29T03:56:39.803Z,7.82
2022-12-29T03:56:51.808Z,8.30
2022-12-29T03:57:03.656Z,9.48
2022-12-29T03:57:15.638Z,9.45
2022-12-29T03:57:27.443Z,9.25
2022-12-29T03:57:39.444Z,7.72
2022-12-29T03:57:51.255Z,7.53
2022-12-29T03:58:03.284Z,7.38
2022-12-29T03:58:15.106Z,7.72
2022-12-29T03:58:27.008Z,7.18